Time,TemperatureF,DewpointF,PressureIn,WindDirection,WindDirectionDegrees,WindSpeedMPH,WindSpeedGustMPH,Humidity,HourlyPrecipIn,Conditions,Clouds,dailyrainin,SoftwareType,DateUTC
2013-03-08 00:01:00,25.8,20.8,29.95,WSW,246,0.0,0.0,81,0.00,,---,0.00,VWS V14.00,2013-03-08 08:01:00,
2013-03-08 00:06:00,25.7,20.7,29.95,WSW,246,0.0,0.0,81,0.00,,---,0.00,VWS V14.00,2013-03-08 08:06:00,
2013-03-08 00:11:00,25.6,20.9,29.95,WSW,246,0.0,0.0,82,0.00,,---,0.00,VWS V14.00,2013-03-08 08:11:00,
2013-03-08 00:16:00,25.6,20.9,29.95,WSW,246,0.0,0.0,82,0.00,,---,0.00,VWS V14.00,2013-03-08 08:16:00,
2013-03-08 00:21:00,25.6,20.9,29.95,WSW,246,0.0,0.0,82,0.00,,---,0.00,VWS V14.00,2013-03-08 08:21:00,
2013-03-08 00:26:00,25.4,20.7,29.95,WSW,246,0.0,0.0,82,0.00,,---,0.00,VWS V14.00,2013-03-08 08:26:00,
2013-03-08 00:31:00,25.4,20.7,29.95,WSW,246,0.0,0.0,82,0.00,,---,0.00,VWS V14.00,2013-03-08 08:31:00,
2013-03-08 00:36:00,25.4,20.7,29.95,WSW,246,0.0,0.0,82,0.00,,---,0.00,VWS V14.00,2013-03-08 08:36:00,
2013-03-08 00:42:00,25.3,20.6,29.95,WSW,246,0.0,0.0,82,0.00,,---,0.00,VWS V14.00,2013-03-08 08:42:00,
2013-03-08 00:47:00,25.1,20.4,29.95,WSW,246,0.0,0.0,82,0.00,,---,0.00,VWS V14.00,2013-03-08 08:47:00,
2013-03-08 00:52:00,25.0,20.3,29.95,WSW,246,0.0,0.0,82,0.00,,---,0.00,VWS V14.00,2013-03-08 08:52:00,
2013-03-08 00:57:00,24.8,20.1,29.95,WSW,246,0.0,0.0,82,0.00,,---,0.00,VWS V14.00,2013-03-08 08:57:00,
2013-03-08 01:02:00,24.8,20.1,29.95,WSW,246,0.0,0.0,82,0.00,,---,0.00,VWS V14.00,2013-03-08 09:02:00,
2013-03-08 01:07:00,24.7,20.0,29.95,WSW,246,0.0,0.0,82,0.00,,---,0.00,VWS V14.00,2013-03-08 09:07:00,
2013-03-08 01:12:00,24.5,19.8,29.95,WSW,246,0.0,0.0,82,0.00,,---,0.00,VWS V14.00,2013-03-08 09:12:00,
2013-03-08 01:17:00,24.5,19.8,29.95,WSW,246,0.0,0.0,82,0.00,,---,0.00,VWS V14.00,2013-03-08 09:17:00,
2013-03-08 01:22:00,24.5,19.8,29.95,WSW,246,0.0,0.0,82,0.00,,---,0.00,VWS V14.00,2013-03-08 09:22:00,
2013-03-08 01:27:00,24.5,19.8,29.95,WSW,246,0.0,0.0,82,0.00,,---,0.00,VWS V14.00,2013-03-08 09:27:00,
2013-03-08 01:32:00,24.5,19.8,29.95,WSW,246,0.0,0.0,82,0.00,,---,0.00,VWS V14.00,2013-03-08 09:32:00,
2013-03-08 01:37:00,24.5,19.8,29.95,WSW,246,0.0,0.0,82,0.00,,---,0.00,VWS V14.00,2013-03-08 09:37:00,
2013-03-08 01:42:00,24.5,19.8,29.95,WSW,246,0.0,0.0,82,0.00,,---,0.00,VWS V14.00,2013-03-08 09:42:00,
2013-03-08 01:47:00,24.7,20.3,29.95,WSW,246,0.0,0.0,83,0.00,,---,0.00,VWS V14.00,2013-03-08 09:47:00,
2013-03-08 01:53:00,24.7,20.3,29.95,WSW,246,0.0,0.0,83,0.00,,---,0.00,VWS V14.00,2013-03-08 09:53:00,
2013-03-08 01:58:00,24.7,20.3,29.95,WSW,246,0.0,0.0,83,0.00,,---,0.00,VWS V14.00,2013-03-08 09:58:00,
2013-03-08 02:03:00,24.8,20.4,29.95,WSW,246,0.0,0.0,83,0.00,,---,0.00,VWS V14.00,2013-03-08 10:03:00,
2013-03-08 02:08:00,24.8,20.4,29.95,WSW,246,0.0,0.0,83,0.00,,---,0.00,VWS V14.00,2013-03-08 10:08:00,
2013-03-08 02:13:00,24.8,20.4,29.95,WSW,246,0.0,0.0,83,0.00,,---,0.00,VWS V14.00,2013-03-08 10:13:00,
2013-03-08 02:18:00,24.8,20.4,29.93,WSW,246,0.0,0.0,83,0.00,,---,0.00,VWS V14.00,2013-03-08 10:18:00,
2013-03-08 02:23:00,25.0,20.6,29.93,WSW,246,0.0,0.0,83,0.00,,---,0.00,VWS V14.00,2013-03-08 10:23:00,
2013-03-08 02:28:00,25.0,20.6,29.93,WSW,246,0.0,0.0,83,0.00,,---,0.00,VWS V14.00,2013-03-08 10:28:00,
2013-03-08 02:33:00,25.0,20.6,29.93,WSW,246,0.0,0.0,83,0.00,,---,0.00,VWS V14.00,2013-03-08 10:33:00,
2013-03-08 02:38:00,25.0,20.6,29.93,WSW,246,0.0,0.0,83,0.00,,---,0.00,VWS V14.00,2013-03-08 10:38:00,
2013-03-08 02:43:00,25.1,20.7,29.93,WSW,246,0.0,0.0,83,0.00,,---,0.00,VWS V14.00,2013-03-08 10:43:00,
2013-03-08 02:48:00,25.1,20.7,29.93,WSW,246,0.0,0.0,83,0.00,,---,0.00,VWS V14.00,2013-03-08 10:48:00,
2013-03-08 02:53:00,25.0,20.6,29.93,WSW,246,0.0,0.0,83,0.00,,---,0.00,VWS V14.00,2013-03-08 10:53:00,
2013-03-08 02:58:00,25.0,20.6,29.93,WSW,246,0.0,0.0,83,0.00,,---,0.00,VWS V14.00,2013-03-08 10:58:00,
2013-03-08 03:03:00,24.8,20.4,29.93,WSW,246,0.0,0.0,83,0.00,,---,0.00,VWS V14.00,2013-03-08 11:03:00,
2013-03-08 03:08:00,24.8,20.4,29.93,WSW,246,0.0,0.0,83,0.00,,---,0.00,VWS V14.00,2013-03-08 11:08:00,
2013-03-08 03:13:00,24.7,20.3,29.93,WSW,246,0.0,0.0,83,0.00,,---,0.00,VWS V14.00,2013-03-08 11:13:00,
2013-03-08 03:18:00,24.5,19.8,29.93,WSW,246,0.0,0.0,82,0.00,,---,0.00,VWS V14.00,2013-03-08 11:18:00,
2013-03-08 03:24:00,24.5,19.8,29.93,WSW,246,0.0,0.0,82,0.00,,---,0.00,VWS V14.00,2013-03-08 11:24:00,
2013-03-08 03:29:00,24.4,20.0,29.93,WSW,246,0.0,0.0,83,0.00,,---,0.00,VWS V14.00,2013-03-08 11:29:00,
2013-03-08 03:34:00,24.2,19.5,29.94,WSW,246,0.0,0.0,82,0.00,,---,0.00,VWS V14.00,2013-03-08 11:34:00,
2013-03-08 03:39:00,24.1,19.4,29.94,WSW,246,0.0,0.0,82,0.00,,---,0.00,VWS V14.00,2013-03-08 11:39:00,
2013-03-08 03:44:00,24.1,19.7,29.94,WSW,246,0.0,0.0,83,0.00,,---,0.00,VWS V14.00,2013-03-08 11:44:00,
2013-03-08 03:49:00,23.9,19.2,29.94,WSW,246,0.0,0.0,82,0.00,,---,0.00,VWS V14.00,2013-03-08 11:49:00,
2013-03-08 03:54:00,23.8,19.1,29.94,WSW,246,0.0,0.0,82,0.00,,---,0.00,VWS V14.00,2013-03-08 11:54:00,
2013-03-08 03:59:00,23.8,19.4,29.94,WSW,246,0.0,0.0,83,0.00,,---,0.00,VWS V14.00,2013-03-08 11:59:00,
2013-03-08 04:04:00,23.6,19.2,29.94,WSW,246,0.0,0.0,83,0.00,,---,0.00,VWS V14.00,2013-03-08 12:04:00,
2013-03-08 04:09:00,23.8,19.4,29.94,WSW,246,0.0,0.0,83,0.00,,---,0.00,VWS V14.00,2013-03-08 12:09:00,
2013-03-08 04:14:00,23.8,19.4,29.95,WSW,246,0.0,0.0,83,0.00,,---,0.00,VWS V14.00,2013-03-08 12:14:00,
2013-03-08 04:19:00,23.8,19.4,29.95,WSW,246,0.0,0.0,83,0.00,,---,0.00,VWS V14.00,2013-03-08 12:19:00,
2013-03-08 04:24:00,23.8,19.4,29.95,WSW,246,0.0,0.0,83,0.00,,---,0.00,VWS V14.00,2013-03-08 12:24:00,
2013-03-08 04:30:00,23.8,19.4,29.96,WSW,246,0.0,0.0,83,0.00,,---,0.00,VWS V14.00,2013-03-08 12:30:00,
2013-03-08 04:35:00,23.9,19.5,29.96,WSW,246,0.0,0.0,83,0.00,,---,0.00,VWS V14.00,2013-03-08 12:35:00,
2013-03-08 04:40:00,23.9,19.8,29.96,WSW,246,0.0,0.0,84,0.00,,---,0.00,VWS V14.00,2013-03-08 12:40:00,
2013-03-08 04:45:00,23.9,19.8,29.95,WSW,246,0.0,0.0,84,0.00,,---,0.00,VWS V14.00,2013-03-08 12:45:00,
2013-03-08 04:50:00,23.9,19.8,29.95,WSW,246,0.0,0.0,84,0.00,,---,0.00,VWS V14.00,2013-03-08 12:50:00,
2013-03-08 04:55:00,23.9,19.5,29.95,WSW,246,0.0,0.0,83,0.00,,---,0.00,VWS V14.00,2013-03-08 12:55:00,
2013-03-08 05:00:00,23.8,19.4,29.96,WSW,246,0.0,0.0,83,0.00,,---,0.00,VWS V14.00,2013-03-08 13:00:00,
2013-03-08 05:05:00,23.6,19.2,29.96,WSW,246,0.0,0.0,83,0.00,,---,0.00,VWS V14.00,2013-03-08 13:05:00,
2013-03-08 05:10:00,23.5,19.1,29.96,WSW,246,0.0,0.0,83,0.00,,---,0.00,VWS V14.00,2013-03-08 13:10:00,
2013-03-08 05:15:00,23.5,19.1,29.99,WSW,246,0.0,0.0,83,0.00,,---,0.00,VWS V14.00,2013-03-08 13:15:00,
2013-03-08 05:21:00,23.3,18.9,29.99,WSW,246,0.0,0.0,83,0.00,,---,0.00,VWS V14.00,2013-03-08 13:21:00,
2013-03-08 05:26:00,23.0,18.3,29.99,WSW,246,0.0,0.0,82,0.00,,---,0.00,VWS V14.00,2013-03-08 13:26:00,
2013-03-08 05:31:00,22.9,18.2,29.99,WSW,246,0.0,0.0,82,0.00,,---,0.00,VWS V14.00,2013-03-08 13:31:00,
2013-03-08 05:36:00,22.9,18.2,29.99,WSW,246,0.0,0.0,82,0.00,,---,0.00,VWS V14.00,2013-03-08 13:36:00,
2013-03-08 05:41:00,22.9,18.2,29.99,WSW,246,0.0,0.0,82,0.00,,---,0.00,VWS V14.00,2013-03-08 13:41:00,
2013-03-08 05:46:00,22.7,18.0,29.99,WSW,246,0.0,0.0,82,0.00,,---,0.00,VWS V14.00,2013-03-08 13:46:00,
2013-03-08 05:51:00,22.7,18.0,29.99,WSW,246,0.0,0.0,82,0.00,,---,0.00,VWS V14.00,2013-03-08 13:51:00,
2013-03-08 05:56:00,22.7,18.0,29.99,WSW,246,0.0,0.0,82,0.00,,---,0.00,VWS V14.00,2013-03-08 13:56:00,
2013-03-08 06:01:00,22.7,18.0,30.00,WSW,246,0.0,0.0,82,0.00,,---,0.00,VWS V14.00,2013-03-08 14:01:00,
2013-03-08 06:06:00,22.5,17.9,30.00,WSW,246,0.0,0.0,82,0.00,,---,0.00,VWS V14.00,2013-03-08 14:06:00,
2013-03-08 06:11:00,22.4,17.8,30.00,WSW,246,0.0,0.0,82,0.00,,---,0.00,VWS V14.00,2013-03-08 14:11:00,
2013-03-08 06:16:00,22.2,17.5,30.01,WSW,246,0.0,0.0,82,0.00,,---,0.00,VWS V14.00,2013-03-08 14:16:00,
2013-03-08 06:21:00,22.1,17.2,30.01,WSW,246,0.0,0.0,81,0.00,,---,0.00,VWS V14.00,2013-03-08 14:21:00,
2013-03-08 06:26:00,21.9,17.0,30.01,WSW,246,0.0,0.0,81,0.00,,---,0.00,VWS V14.00,2013-03-08 14:26:00,
2013-03-08 06:32:00,21.8,16.9,30.01,WSW,246,0.0,0.0,81,0.00,,---,0.00,VWS V14.00,2013-03-08 14:32:00,
2013-03-08 06:37:00,21.8,16.9,30.01,WSW,246,0.0,0.0,81,0.00,,---,0.00,VWS V14.00,2013-03-08 14:37:00,
2013-03-08 06:42:00,21.8,16.9,30.01,WSW,246,0.0,0.0,81,0.00,,---,0.00,VWS V14.00,2013-03-08 14:42:00,
2013-03-08 06:47:00,21.9,17.3,30.01,WSW,246,0.0,0.0,82,0.00,,---,0.00,VWS V14.00,2013-03-08 14:47:00,
2013-03-08 06:52:00,22.4,17.8,30.01,WSW,246,0.0,0.0,82,0.00,,---,0.00,VWS V14.00,2013-03-08 14:52:00,
2013-03-08 06:57:00,22.9,18.5,30.01,WSW,246,0.0,0.0,83,0.00,,---,0.00,VWS V14.00,2013-03-08 14:57:00,
2013-03-08 07:02:00,23.2,18.8,30.01,WSW,246,0.0,0.0,83,0.00,,---,0.00,VWS V14.00,2013-03-08 15:02:00,
2013-03-08 07:07:00,23.5,19.1,30.01,WSW,246,0.0,0.0,83,0.00,,---,0.00,VWS V14.00,2013-03-08 15:07:00,
2013-03-08 07:12:00,23.6,19.5,30.01,WSW,246,0.0,0.0,84,0.00,,---,0.00,VWS V14.00,2013-03-08 15:12:00,
2013-03-08 07:17:00,23.9,19.8,30.00,WSW,246,0.0,0.0,84,0.00,,---,0.00,VWS V14.00,2013-03-08 15:17:00,
2013-03-08 07:23:00,24.2,20.1,30.00,WSW,246,0.0,0.0,84,0.00,,---,0.00,VWS V14.00,2013-03-08 15:23:00,
2013-03-08 07:28:00,24.5,20.4,30.00,WSW,246,0.0,0.0,84,0.00,,---,0.00,VWS V14.00,2013-03-08 15:28:00,
2013-03-08 07:33:00,25.0,20.9,30.01,WSW,246,0.0,0.0,84,0.00,,---,0.00,VWS V14.00,2013-03-08 15:33:00,
2013-03-08 07:38:00,25.3,21.1,30.01,WSW,246,0.0,0.0,84,0.00,,---,0.00,VWS V14.00,2013-03-08 15:38:00,
2013-03-08 07:43:00,25.7,21.5,30.01,WSW,246,0.0,0.0,84,0.00,,---,0.00,VWS V14.00,2013-03-08 15:43:00,
2013-03-08 07:48:00,26.3,22.4,30.00,WSW,246,0.0,0.0,85,0.00,,---,0.00,VWS V14.00,2013-03-08 15:48:00,
2013-03-08 07:54:00,26.7,22.8,30.00,WSW,246,0.0,0.0,85,0.00,,---,0.00,VWS V14.00,2013-03-08 15:54:00,
2013-03-08 07:59:00,27.0,23.1,30.00,WSW,246,0.0,0.0,85,0.00,,---,0.00,VWS V14.00,2013-03-08 15:59:00,
2013-03-08 08:04:00,27.5,23.6,30.00,WSW,246,0.0,0.0,85,0.00,,---,0.00,VWS V14.00,2013-03-08 16:04:00,
2013-03-08 08:09:00,27.8,23.9,30.00,WSW,246,0.0,0.0,85,0.00,,---,0.00,VWS V14.00,2013-03-08 16:09:00,
2013-03-08 08:14:00,28.1,24.2,30.00,WSW,246,0.0,0.0,85,0.00,,---,0.00,VWS V14.00,2013-03-08 16:14:00,
2013-03-08 08:19:00,28.4,24.5,30.00,WSW,246,0.0,0.0,85,0.00,,---,0.00,VWS V14.00,2013-03-08 16:19:00,
2013-03-08 08:24:00,28.7,24.8,30.00,WSW,246,0.0,0.0,85,0.00,,---,0.00,VWS V14.00,2013-03-08 16:24:00,
2013-03-08 08:29:00,29.0,25.1,30.00,WSW,246,0.0,0.0,85,0.00,,---,0.00,VWS V14.00,2013-03-08 16:29:00,
2013-03-08 08:34:00,29.3,25.4,30.00,WSW,246,0.0,0.0,85,0.00,,---,0.00,VWS V14.00,2013-03-08 16:34:00,
2013-03-08 08:39:00,29.4,25.2,30.00,WSW,247,0.0,1.0,84,0.00,,---,0.00,VWS V14.00,2013-03-08 16:39:00,
2013-03-08 08:44:00,29.8,25.3,29.99,WSW,247,0.0,2.0,83,0.00,,---,0.00,VWS V14.00,2013-03-08 16:44:00,
2013-03-08 08:50:00,30.3,25.8,29.99,WSW,247,0.0,2.0,83,0.00,,---,0.00,VWS V14.00,2013-03-08 16:50:00,
2013-03-08 08:55:00,30.4,25.6,29.99,WSW,247,0.0,0.0,82,0.00,,---,0.00,VWS V14.00,2013-03-08 16:55:00,
2013-03-08 09:00:00,30.6,25.5,29.99,WSW,247,0.0,1.0,81,0.00,,---,0.00,VWS V14.00,2013-03-08 17:00:00,
2013-03-08 09:05:00,30.6,25.5,29.99,WSW,247,0.0,0.0,81,0.00,,---,0.00,VWS V14.00,2013-03-08 17:05:00,
2013-03-08 09:10:00,30.9,25.8,29.99,WSW,247,0.0,0.0,81,0.00,,---,0.00,VWS V14.00,2013-03-08 17:10:00,
2013-03-08 09:15:00,31.2,26.1,29.99,WSW,247,0.0,2.0,81,0.00,,---,0.00,VWS V14.00,2013-03-08 17:15:00,
2013-03-08 09:20:00,31.5,26.0,29.99,WSW,247,0.0,0.0,80,0.00,,---,0.00,VWS V14.00,2013-03-08 17:20:00,
2013-03-08 09:25:00,31.8,26.4,29.99,West,270,1.0,2.0,80,0.00,,---,0.00,VWS V14.00,2013-03-08 17:25:00,
2013-03-08 09:30:00,32.1,26.3,29.99,WNW,291,0.0,0.0,79,0.00,,---,0.00,VWS V14.00,2013-03-08 17:30:00,
2013-03-08 09:35:00,32.4,26.6,29.99,WNW,291,0.0,0.0,79,0.00,,---,0.00,VWS V14.00,2013-03-08 17:35:00,
2013-03-08 09:40:00,32.7,27.2,29.99,WNW,291,0.0,0.0,80,0.00,,---,0.00,VWS V14.00,2013-03-08 17:40:00,
2013-03-08 09:46:00,32.9,27.1,29.99,WNW,291,0.0,2.0,79,0.00,,---,0.00,VWS V14.00,2013-03-08 17:46:00,
2013-03-08 09:51:00,33.1,27.3,29.99,WNW,291,0.0,0.0,79,0.00,,---,0.01,VWS V14.00,2013-03-08 17:51:00,
2013-03-08 09:56:00,33.2,27.1,29.99,WNW,291,0.0,1.0,78,0.00,,---,0.01,VWS V14.00,2013-03-08 17:56:00,
2013-03-08 10:01:00,33.5,27.4,29.99,WNW,291,0.0,0.0,78,0.00,,---,0.01,VWS V14.00,2013-03-08 18:01:00,
2013-03-08 10:06:00,34.0,27.6,29.99,WNW,291,0.0,0.0,77,0.00,,---,0.01,VWS V14.00,2013-03-08 18:06:00,
2013-03-08 10:11:00,34.0,27.6,29.99,WNW,291,0.0,0.0,77,0.00,,---,0.01,VWS V14.00,2013-03-08 18:11:00,
2013-03-08 10:16:00,34.1,27.7,29.99,WNW,291,0.0,1.0,77,0.00,,---,0.01,VWS V14.00,2013-03-08 18:16:00,
2013-03-08 10:21:00,34.1,27.7,29.99,WNW,292,0.0,0.0,77,0.00,,---,0.01,VWS V14.00,2013-03-08 18:21:00,
2013-03-08 10:26:00,34.1,27.3,29.99,WNW,292,0.0,2.0,76,0.00,,---,0.01,VWS V14.00,2013-03-08 18:26:00,
2013-03-08 10:31:00,34.1,27.7,30.00,WNW,294,0.0,2.0,77,0.00,,---,0.01,VWS V14.00,2013-03-08 18:31:00,
2013-03-08 10:36:00,34.1,27.3,30.00,WNW,294,0.0,2.0,76,0.00,,---,0.01,VWS V14.00,2013-03-08 18:36:00,
2013-03-08 10:41:00,34.4,27.6,30.00,WNW,294,0.0,3.0,76,0.00,,---,0.01,VWS V14.00,2013-03-08 18:41:00,
2013-03-08 10:46:00,34.7,27.6,30.00,WNW,294,0.0,3.0,75,0.00,,---,0.01,VWS V14.00,2013-03-08 18:46:00,
2013-03-08 10:52:00,34.7,27.6,30.00,WNW,294,0.0,1.0,75,0.00,,---,0.01,VWS V14.00,2013-03-08 18:52:00,
2013-03-08 10:57:00,34.6,27.5,30.00,WNW,294,0.0,2.0,75,0.00,,---,0.01,VWS V14.00,2013-03-08 18:57:00,
2013-03-08 11:02:00,34.4,27.3,30.00,WNW,294,0.0,1.0,75,0.00,,---,0.01,VWS V14.00,2013-03-08 19:02:00,
2013-03-08 11:07:00,34.6,27.5,30.00,WNW,294,0.0,1.0,75,0.00,,---,0.01,VWS V14.00,2013-03-08 19:07:00,
2013-03-08 11:12:00,34.7,27.0,30.00,WNW,294,0.0,0.0,73,0.00,,---,0.01,VWS V14.00,2013-03-08 19:12:00,
2013-03-08 11:17:00,35.3,27.9,30.00,WNW,294,0.0,1.0,74,0.00,,---,0.01,VWS V14.00,2013-03-08 19:17:00,
2013-03-08 11:22:00,35.0,27.2,30.00,SSE,157,3.0,5.0,73,0.00,,---,0.01,VWS V14.00,2013-03-08 19:22:00,
2013-03-08 11:27:00,35.3,27.2,30.00,SSE,157,0.0,5.0,72,0.00,,---,0.01,VWS V14.00,2013-03-08 19:27:00,
2013-03-08 11:32:00,35.6,25.7,30.00,SSE,157,0.0,0.0,67,0.00,,---,0.01,VWS V14.00,2013-03-08 19:32:00,
2013-03-08 11:37:00,36.3,27.8,30.00,SSE,157,0.0,2.0,71,0.00,,---,0.01,VWS V14.00,2013-03-08 19:37:00,
2013-03-08 11:42:00,36.8,26.9,30.00,NNW,333,0.0,5.0,67,0.00,,---,0.01,VWS V14.00,2013-03-08 19:42:00,
2013-03-08 11:48:00,37.6,27.6,30.00,SSE,162,1.0,5.0,67,0.00,,---,0.01,VWS V14.00,2013-03-08 19:48:00,
2013-03-08 11:53:00,39.1,28.3,30.00,NW,320,0.0,7.0,65,0.00,,---,0.01,VWS V14.00,2013-03-08 19:53:00,
2013-03-08 11:58:00,41.2,28.0,30.00,NNE,21,2.0,7.0,59,0.00,,---,0.01,VWS V14.00,2013-03-08 19:58:00,
2013-03-08 12:03:00,40.9,26.4,29.97,East,95,0.0,2.0,56,0.00,,---,0.01,VWS V14.00,2013-03-08 20:03:00,
2013-03-08 12:08:00,41.9,26.5,29.97,North,359,0.0,3.0,54,0.00,,---,0.01,VWS V14.00,2013-03-08 20:08:00,
2013-03-08 12:13:00,42.1,27.1,29.97,East,100,2.0,5.0,55,0.00,,---,0.01,VWS V14.00,2013-03-08 20:13:00,
2013-03-08 12:18:00,42.8,26.9,29.97,East,97,0.0,5.0,53,0.00,,---,0.01,VWS V14.00,2013-03-08 20:18:00,
2013-03-08 12:23:00,41.6,27.5,29.97,ESE,102,1.0,3.0,57,0.00,,---,0.01,VWS V14.00,2013-03-08 20:23:00,
2013-03-08 12:28:00,41.5,27.0,29.97,East,96,0.0,3.0,56,0.00,,---,0.01,VWS V14.00,2013-03-08 20:28:00,
2013-03-08 12:33:00,40.6,25.3,29.97,SE,134,0.0,3.0,54,0.00,,---,0.01,VWS V14.00,2013-03-08 20:33:00,
2013-03-08 12:38:00,39.2,25.3,29.97,SE,137,0.0,6.0,57,0.00,,---,0.01,VWS V14.00,2013-03-08 20:38:00,
2013-03-08 12:43:00,38.8,24.5,29.97,SE,133,0.0,2.0,56,0.00,,---,0.01,VWS V14.00,2013-03-08 20:43:00,
2013-03-08 12:48:00,40.1,26.5,29.98,North,356,0.0,5.0,58,0.00,,---,0.01,VWS V14.00,2013-03-08 20:48:00,
2013-03-08 12:53:00,41.3,27.6,29.98,NNW,346,0.0,2.0,58,0.00,,---,0.01,VWS V14.00,2013-03-08 20:53:00,
2013-03-08 12:58:00,42.5,27.0,29.98,North,349,0.0,2.0,54,0.00,,---,0.01,VWS V14.00,2013-03-08 20:58:00,
2013-03-08 13:04:00,42.9,26.5,29.95,North,349,0.0,1.0,52,0.00,,---,0.01,VWS V14.00,2013-03-08 21:04:00,
2013-03-08 13:09:00,42.3,25.5,29.95,North,359,0.0,3.0,51,0.00,,---,0.01,VWS V14.00,2013-03-08 21:09:00,
2013-03-08 13:14:00,42.8,26.9,29.95,North,359,2.0,2.0,53,0.00,,---,0.01,VWS V14.00,2013-03-08 21:14:00,
2013-03-08 13:19:00,42.9,27.4,29.95,North,359,0.0,3.0,54,0.00,,---,0.01,VWS V14.00,2013-03-08 21:19:00,
2013-03-08 13:24:00,42.8,26.9,29.95,North,359,3.0,3.0,53,0.00,,---,0.01,VWS V14.00,2013-03-08 21:24:00,
2013-03-08 13:29:00,42.2,26.3,29.96,North,359,0.0,3.0,53,0.00,,---,0.01,VWS V14.00,2013-03-08 21:29:00,
2013-03-08 13:34:00,42.1,26.2,29.96,North,1,2.0,3.0,53,0.00,,---,0.01,VWS V14.00,2013-03-08 21:34:00,
2013-03-08 13:39:00,43.2,25.8,29.96,NNW,346,0.0,3.0,50,0.00,,---,0.01,VWS V14.00,2013-03-08 21:39:00,
2013-03-08 13:44:00,43.6,26.7,29.95,North,359,1.0,3.0,51,0.00,,---,0.01,VWS V14.00,2013-03-08 21:44:00,
2013-03-08 13:50:00,44.1,27.6,29.95,North,359,0.0,3.0,52,0.00,,---,0.01,VWS V14.00,2013-03-08 21:50:00,
2013-03-08 13:55:00,43.2,25.8,29.95,North,0,2.0,4.0,50,0.00,,---,0.01,VWS V14.00,2013-03-08 21:55:00,
2013-03-08 14:00:00,42.8,25.9,29.95,North,0,0.0,4.0,51,0.00,,---,0.01,VWS V14.00,2013-03-08 22:00:00,
2013-03-08 14:05:00,42.2,24.9,29.95,North,0,0.0,2.0,50,0.00,,---,0.01,VWS V14.00,2013-03-08 22:05:00,
2013-03-08 14:10:00,41.6,25.8,29.95,NW,322,2.0,6.0,53,0.00,,---,0.01,VWS V14.00,2013-03-08 22:10:00,
2013-03-08 14:15:00,41.2,24.9,29.96,NW,308,0.0,6.0,52,0.00,,---,0.01,VWS V14.00,2013-03-08 22:15:00,
2013-03-08 14:20:00,40.9,25.1,29.96,NW,309,2.0,3.0,53,0.00,,---,0.01,VWS V14.00,2013-03-08 22:20:00,
2013-03-08 14:25:00,40.8,24.5,29.96,NW,309,0.0,3.0,52,0.00,,---,0.01,VWS V14.00,2013-03-08 22:25:00,
2013-03-08 14:30:00,40.3,24.1,29.96,NW,312,0.0,2.0,52,0.00,,---,0.01,VWS V14.00,2013-03-08 22:30:00,
2013-03-08 14:35:00,40.2,24.5,29.96,NW,315,0.0,3.0,53,0.00,,---,0.01,VWS V14.00,2013-03-08 22:35:00,
2013-03-08 14:41:00,40.3,24.5,29.96,NW,315,0.0,0.0,53,0.00,,---,0.01,VWS V14.00,2013-03-08 22:41:00,
2013-03-08 14:46:00,40.3,25.4,29.97,NW,315,0.0,2.0,55,0.00,,---,0.01,VWS V14.00,2013-03-08 22:46:00,
2013-03-08 14:51:00,40.6,24.4,29.97,NW,326,2.0,3.0,52,0.00,,---,0.01,VWS V14.00,2013-03-08 22:51:00,
2013-03-08 14:56:00,40.6,24.4,29.97,NW,326,0.0,3.0,52,0.00,,---,0.01,VWS V14.00,2013-03-08 22:56:00,
2013-03-08 15:01:00,40.9,24.2,29.97,NNW,332,4.0,4.0,51,0.00,,---,0.01,VWS V14.00,2013-03-08 23:01:00,
2013-03-08 15:06:00,41.2,23.5,29.97,NNW,346,0.0,4.0,49,0.00,,---,0.01,VWS V14.00,2013-03-08 23:06:00,
2013-03-08 15:11:00,41.3,23.6,29.97,NNE,16,2.0,3.0,49,0.00,,---,0.01,VWS V14.00,2013-03-08 23:11:00,
2013-03-08 15:16:00,41.2,23.5,29.98,NNE,16,0.0,3.0,49,0.00,,---,0.01,VWS V14.00,2013-03-08 23:16:00,
2013-03-08 15:21:00,41.3,23.6,29.98,NNE,17,0.0,2.0,49,0.00,,---,0.01,VWS V14.00,2013-03-08 23:21:00,
2013-03-08 15:27:00,41.5,23.8,29.98,NW,322,0.0,3.0,49,0.00,,---,0.01,VWS V14.00,2013-03-08 23:27:00,
2013-03-08 15:32:00,41.5,24.7,29.97,WNW,284,0.0,2.0,51,0.00,,---,0.01,VWS V14.00,2013-03-08 23:32:00,
2013-03-08 15:37:00,41.8,23.1,29.97,North,7,2.0,4.0,47,0.00,,---,0.01,VWS V14.00,2013-03-08 23:37:00,
2013-03-08 15:42:00,41.6,21.3,29.97,North,359,0.0,1.0,44,0.00,,---,0.01,VWS V14.00,2013-03-08 23:42:00,
2013-03-08 15:47:00,41.5,21.8,29.97,North,359,0.0,2.0,45,0.00,,---,0.01,VWS V14.00,2013-03-08 23:47:00,
2013-03-08 15:52:00,41.2,21.5,29.97,North,359,2.0,3.0,45,0.00,,---,0.01,VWS V14.00,2013-03-08 23:52:00,
2013-03-08 15:57:00,41.1,22.4,29.97,North,359,0.0,3.0,47,0.00,,---,0.01,VWS V14.00,2013-03-08 23:57:00,
2013-03-08 16:02:00,41.1,21.9,29.98,North,359,0.0,2.0,46,0.00,,---,0.01,VWS V14.00,2013-03-09 00:02:00,
2013-03-08 16:07:00,41.2,22.5,29.98,North,359,0.0,2.0,47,0.00,,---,0.01,VWS V14.00,2013-03-09 00:07:00,
2013-03-08 16:13:00,41.5,21.8,29.98,North,359,0.0,1.0,45,0.00,,---,0.01,VWS V14.00,2013-03-09 00:13:00,
2013-03-08 16:18:00,41.6,22.9,29.97,NNW,330,2.0,8.0,47,0.00,,---,0.01,VWS V14.00,2013-03-09 00:18:00,
2013-03-08 16:23:00,41.9,22.6,29.97,North,349,5.0,5.0,46,0.00,,---,0.01,VWS V14.00,2013-03-09 00:23:00,
2013-03-08 16:28:00,41.9,22.1,29.97,North,3,0.0,5.0,45,0.00,,---,0.01,VWS V14.00,2013-03-09 00:28:00,
2013-03-08 16:33:00,41.6,21.9,29.97,North,3,0.0,5.0,45,0.00,,---,0.01,VWS V14.00,2013-03-09 00:33:00,
2013-03-08 16:38:00,41.1,21.4,29.97,NW,306,0.0,6.0,45,0.00,,---,0.01,VWS V14.00,2013-03-09 00:38:00,
2013-03-08 16:43:00,40.6,22.5,29.97,North,352,0.0,2.0,48,0.00,,---,0.01,VWS V14.00,2013-03-09 00:43:00,
2013-03-08 16:49:00,40.3,22.2,29.99,North,10,0.0,5.0,48,0.00,,---,0.01,VWS V14.00,2013-03-09 00:49:00,
2013-03-08 16:54:00,39.9,22.8,29.99,North,10,0.0,2.0,50,0.00,,---,0.01,VWS V14.00,2013-03-09 00:54:00,
2013-03-08 16:59:00,39.6,23.0,29.99,NW,311,0.0,5.0,51,0.00,,---,0.01,VWS V14.00,2013-03-09 00:59:00,
2013-03-08 17:04:00,39.3,22.7,30.00,NW,311,0.0,1.0,51,0.00,,---,0.01,VWS V14.00,2013-03-09 01:04:00,
2013-03-08 17:09:00,39.1,23.0,30.00,NW,311,0.0,2.0,52,0.00,,---,0.01,VWS V14.00,2013-03-09 01:09:00,
2013-03-08 17:14:00,38.8,22.7,30.01,NW,311,0.0,2.0,52,0.00,,---,0.01,VWS V14.00,2013-03-09 01:14:00,
2013-03-08 17:19:00,38.6,22.5,30.01,NW,311,0.0,2.0,52,0.00,,---,0.01,VWS V14.00,2013-03-09 01:19:00,
2013-03-08 17:24:00,38.6,22.5,30.01,NW,311,0.0,2.0,52,0.00,,---,0.01,VWS V14.00,2013-03-09 01:24:00,
2013-03-08 17:29:00,38.5,21.5,30.01,NW,311,0.0,2.0,50,0.00,,---,0.01,VWS V14.00,2013-03-09 01:29:00,
2013-03-08 17:34:00,38.5,22.0,30.01,NW,311,0.0,0.0,51,0.00,,---,0.01,VWS V14.00,2013-03-09 01:34:00,
2013-03-08 17:40:00,38.3,22.7,30.01,NW,323,0.0,3.0,53,0.00,,---,0.01,VWS V14.00,2013-03-09 01:40:00,
2013-03-08 17:45:00,38.2,23.0,30.04,NW,325,0.0,2.0,54,0.00,,---,0.01,VWS V14.00,2013-03-09 01:45:00,
2013-03-08 17:50:00,38.2,23.0,30.04,NW,326,0.0,3.0,54,0.00,,---,0.01,VWS V14.00,2013-03-09 01:50:00,
2013-03-08 17:55:00,37.9,23.2,30.04,NW,326,0.0,1.0,55,0.00,,---,0.01,VWS V14.00,2013-03-09 01:55:00,
2013-03-08 18:00:00,37.8,23.5,30.05,NNW,329,0.0,2.0,56,0.00,,---,0.01,VWS V14.00,2013-03-09 02:00:00,
2013-03-08 18:05:00,37.5,23.7,30.05,NNW,329,0.0,2.0,57,0.00,,---,0.01,VWS V14.00,2013-03-09 02:05:00,
2013-03-08 18:10:00,37.3,23.5,30.05,NNW,329,0.0,1.0,57,0.00,,---,0.01,VWS V14.00,2013-03-09 02:10:00,
2013-03-08 18:15:00,37.2,23.8,30.06,NNW,329,0.0,2.0,58,0.00,,---,0.01,VWS V14.00,2013-03-09 02:15:00,
2013-03-08 18:20:00,37.0,24.0,30.06,NNW,329,0.0,0.0,59,0.00,,---,0.01,VWS V14.00,2013-03-09 02:20:00,
2013-03-08 18:26:00,37.0,24.0,30.06,NNW,329,0.0,1.0,59,0.00,,---,0.01,VWS V14.00,2013-03-09 02:26:00,
2013-03-08 18:31:00,36.8,24.2,30.06,NNW,329,0.0,0.0,60,0.00,,---,0.01,VWS V14.00,2013-03-09 02:31:00,
2013-03-08 18:36:00,36.6,24.0,30.06,NNW,329,0.0,0.0,60,0.00,,---,0.01,VWS V14.00,2013-03-09 02:36:00,
2013-03-08 18:41:00,36.3,23.8,30.06,NNW,329,0.0,0.0,60,0.00,,---,0.01,VWS V14.00,2013-03-09 02:41:00,
2013-03-08 18:46:00,36.2,23.7,30.08,NNW,329,0.0,0.0,60,0.00,,---,0.01,VWS V14.00,2013-03-09 02:46:00,
2013-03-08 18:51:00,35.8,24.1,30.08,NNW,329,0.0,0.0,62,0.00,,---,0.01,VWS V14.00,2013-03-09 02:51:00,
2013-03-08 18:56:00,35.0,23.3,30.08,NNW,329,0.0,0.0,62,0.00,,---,0.01,VWS V14.00,2013-03-09 02:56:00,
2013-03-08 19:01:00,34.4,23.5,30.08,NNW,329,0.0,0.0,64,0.00,,---,0.01,VWS V14.00,2013-03-09 03:01:00,
2013-03-08 19:06:00,33.7,22.8,30.08,NNW,329,0.0,0.0,64,0.00,,---,0.01,VWS V14.00,2013-03-09 03:06:00,
2013-03-08 19:11:00,32.8,23.4,30.08,NNW,329,0.0,0.0,68,0.00,,---,0.01,VWS V14.00,2013-03-09 03:11:00,
2013-03-08 19:16:00,31.9,22.9,30.09,NNW,329,0.0,0.0,69,0.00,,---,0.01,VWS V14.00,2013-03-09 03:16:00,
2013-03-08 19:21:00,31.3,22.7,30.09,NNW,329,0.0,0.0,70,0.00,,---,0.01,VWS V14.00,2013-03-09 03:21:00,
2013-03-08 19:26:00,30.6,22.0,30.09,NNW,329,0.0,0.0,70,0.00,,---,0.01,VWS V14.00,2013-03-09 03:26:00,
2013-03-08 19:31:00,30.1,21.9,30.10,NNW,329,0.0,0.0,71,0.00,,---,0.01,VWS V14.00,2013-03-09 03:31:00,
2013-03-08 19:36:00,29.7,21.8,30.10,NNW,329,0.0,0.0,72,0.00,,---,0.01,VWS V14.00,2013-03-09 03:36:00,
2013-03-08 19:41:00,29.3,21.7,30.10,NNW,329,0.0,0.0,73,0.00,,---,0.01,VWS V14.00,2013-03-09 03:41:00,
2013-03-08 19:46:00,28.8,21.6,30.11,NNW,329,0.0,0.0,74,0.00,,---,0.01,VWS V14.00,2013-03-09 03:46:00,
2013-03-08 19:52:00,28.5,21.6,30.11,NNW,329,0.0,0.0,75,0.00,,---,0.01,VWS V14.00,2013-03-09 03:52:00,
2013-03-08 19:57:00,28.1,21.2,30.11,NNW,329,0.0,0.0,75,0.00,,---,0.01,VWS V14.00,2013-03-09 03:57:00,
2013-03-08 20:02:00,27.9,21.0,30.12,NNW,329,0.0,0.0,75,0.00,,---,0.01,VWS V14.00,2013-03-09 04:02:00,
2013-03-08 20:07:00,27.5,20.6,30.12,NNW,329,0.0,0.0,75,0.00,,---,0.01,VWS V14.00,2013-03-09 04:07:00,
2013-03-08 20:12:00,27.3,20.4,30.12,NNW,329,0.0,0.0,75,0.00,,---,0.01,VWS V14.00,2013-03-09 04:12:00,
2013-03-08 20:17:00,26.9,20.4,30.11,NNW,329,0.0,0.0,76,0.00,,---,0.01,VWS V14.00,2013-03-09 04:17:00,
2013-03-08 20:22:00,26.7,20.2,30.11,NNW,329,0.0,0.0,76,0.00,,---,0.01,VWS V14.00,2013-03-09 04:22:00,
2013-03-08 20:27:00,26.4,19.9,30.11,NNW,329,0.0,0.0,76,0.00,,---,0.01,VWS V14.00,2013-03-09 04:27:00,
2013-03-08 20:32:00,26.3,20.1,30.13,NNW,329,0.0,0.0,77,0.00,,---,0.01,VWS V14.00,2013-03-09 04:32:00,
2013-03-08 20:37:00,26.1,19.9,30.13,NNW,329,0.0,0.0,77,0.00,,---,0.01,VWS V14.00,2013-03-09 04:37:00,
2013-03-08 20:42:00,26.0,19.8,30.13,NNW,329,0.0,0.0,77,0.00,,---,0.01,VWS V14.00,2013-03-09 04:42:00,
2013-03-08 20:47:00,25.8,19.6,30.14,NNW,329,0.0,0.0,77,0.00,,---,0.01,VWS V14.00,2013-03-09 04:47:00,
2013-03-08 20:52:00,25.8,19.9,30.14,NNW,329,0.0,0.0,78,0.00,,---,0.01,VWS V14.00,2013-03-09 04:52:00,
2013-03-08 20:57:00,25.7,19.8,30.14,NNW,329,0.0,0.0,78,0.00,,---,0.01,VWS V14.00,2013-03-09 04:57:00,
2013-03-08 21:00:00,25.6,19.7,30.14,NNW,329,0.0,0.0,78,0.00,,---,0.01,VWS V14.00,2013-03-09 05:00:00,
2013-03-08 21:01:00,25.6,19.7,30.14,NNW,329,0.0,0.0,78,0.00,,---,0.01,VWS V14.00,2013-03-09 05:01:00,
2013-03-08 21:05:00,25.4,19.5,30.14,NNW,329,0.0,0.0,78,0.00,,---,0.01,VWS V14.00,2013-03-09 05:05:00,
2013-03-08 21:11:00,25.4,19.5,30.14,NNW,329,0.0,0.0,78,0.00,,---,0.01,VWS V14.00,2013-03-09 05:11:00,
2013-03-08 21:16:00,25.3,19.7,30.14,NNW,329,0.0,0.0,79,0.00,,---,0.01,VWS V14.00,2013-03-09 05:16:00,
2013-03-08 21:21:00,25.3,19.7,30.14,NNW,329,0.0,0.0,79,0.00,,---,0.01,VWS V14.00,2013-03-09 05:21:00,
2013-03-08 21:26:00,25.1,19.5,30.14,NNW,329,0.0,0.0,79,0.00,,---,0.01,VWS V14.00,2013-03-09 05:26:00,
2013-03-08 21:31:00,25.1,19.8,30.15,NNW,329,0.0,0.0,80,0.00,,---,0.01,VWS V14.00,2013-03-09 05:31:00,
2013-03-08 21:36:00,25.0,19.4,30.15,NNW,329,0.0,0.0,79,0.00,,---,0.01,VWS V14.00,2013-03-09 05:36:00,
2013-03-08 21:41:00,25.0,19.7,30.15,NNW,329,0.0,0.0,80,0.00,,---,0.01,VWS V14.00,2013-03-09 05:41:00,
2013-03-08 21:46:00,24.8,19.2,30.16,NNW,329,0.0,0.0,79,0.00,,---,0.01,VWS V14.00,2013-03-09 05:46:00,
2013-03-08 21:51:00,24.7,19.4,30.16,NNW,329,0.0,0.0,80,0.00,,---,0.01,VWS V14.00,2013-03-09 05:51:00,
2013-03-08 21:56:00,24.5,19.2,30.16,NNW,329,0.0,0.0,80,0.00,,---,0.01,VWS V14.00,2013-03-09 05:56:00,
2013-03-08 22:01:00,24.5,19.2,30.16,NNW,329,0.0,0.0,80,0.00,,---,0.01,VWS V14.00,2013-03-09 06:01:00,
2013-03-08 22:06:00,24.5,19.2,30.16,NNW,329,0.0,1.0,80,0.00,,---,0.01,VWS V14.00,2013-03-09 06:06:00,
2013-03-08 22:11:00,24.5,19.2,30.16,NNW,329,0.0,0.0,80,0.00,,---,0.01,VWS V14.00,2013-03-09 06:11:00,
2013-03-08 22:16:00,24.4,19.1,30.16,NNW,329,0.0,0.0,80,0.00,,---,0.01,VWS V14.00,2013-03-09 06:16:00,
2013-03-08 22:21:00,24.2,18.9,30.16,NNW,329,0.0,0.0,80,0.00,,---,0.01,VWS V14.00,2013-03-09 06:21:00,
2013-03-08 22:26:00,24.1,18.8,30.16,NNW,329,0.0,0.0,80,0.00,,---,0.01,VWS V14.00,2013-03-09 06:26:00,
2013-03-08 22:32:00,24.1,18.8,30.17,NNW,329,0.0,0.0,80,0.00,,---,0.01,VWS V14.00,2013-03-09 06:32:00,
2013-03-08 22:37:00,23.9,18.6,30.17,NNW,329,0.0,0.0,80,0.00,,---,0.01,VWS V14.00,2013-03-09 06:37:00,
2013-03-08 22:42:00,23.8,18.5,30.17,NNW,329,0.0,0.0,80,0.00,,---,0.01,VWS V14.00,2013-03-09 06:42:00,
2013-03-08 22:47:00,23.6,18.6,30.16,NNW,329,0.0,0.0,81,0.00,,---,0.01,VWS V14.00,2013-03-09 06:47:00,
2013-03-08 22:52:00,23.5,18.5,30.16,NNW,329,0.0,0.0,81,0.00,,---,0.01,VWS V14.00,2013-03-09 06:52:00,
2013-03-08 22:57:00,23.3,18.3,30.16,NNW,329,0.0,0.0,81,0.00,,---,0.01,VWS V14.00,2013-03-09 06:57:00,
2013-03-08 23:02:00,23.2,18.2,30.17,NNW,329,0.0,0.0,81,0.00,,---,0.01,VWS V14.00,2013-03-09 07:02:00,
2013-03-08 23:07:00,23.2,18.2,30.17,NNW,329,0.0,0.0,81,0.00,,---,0.01,VWS V14.00,2013-03-09 07:07:00,
2013-03-08 23:12:00,23.0,18.0,30.17,NNW,329,0.0,2.0,81,0.00,,---,0.01,VWS V14.00,2013-03-09 07:12:00,
2013-03-08 23:17:00,23.2,18.5,30.14,NNW,329,0.0,2.0,82,0.00,,---,0.01,VWS V14.00,2013-03-09 07:17:00,
2013-03-08 23:22:00,23.0,18.0,30.14,NNW,328,2.0,2.0,81,0.00,,---,0.01,VWS V14.00,2013-03-09 07:22:00,
2013-03-08 23:27:00,23.0,18.0,30.14,NNW,328,0.0,2.0,81,0.00,,---,0.01,VWS V14.00,2013-03-09 07:27:00,
2013-03-08 23:32:00,23.3,18.6,30.14,NNW,328,0.0,0.0,82,0.00,,---,0.01,VWS V14.00,2013-03-09 07:32:00,
2013-03-08 23:37:00,23.3,18.3,30.14,NNW,328,0.0,0.0,81,0.00,,---,0.01,VWS V14.00,2013-03-09 07:37:00,
2013-03-08 23:42:00,23.0,17.8,30.14,NW,326,0.0,0.0,80,0.00,,---,0.01,VWS V14.00,2013-03-09 07:42:00,
2013-03-08 23:47:00,22.9,17.7,30.15,NW,326,0.0,0.0,80,0.00,,---,0.01,VWS V14.00,2013-03-09 07:47:00,
2013-03-08 23:52:00,22.7,17.5,30.15,NW,326,0.0,0.0,80,0.00,,---,0.01,VWS V14.00,2013-03-09 07:52:00,
2013-03-08 23:57:00,22.4,17.2,30.15,NW,326,0.0,0.0,80,0.00,,---,0.01,VWS V14.00,2013-03-09 07:57:00,